createdAt,value
2019-05-07T00:00:32.924Z,0.00
2019-05-07T00:01:33.993Z,0.00
2019-05-07T00:02:32.219Z,0.00
2019-05-07T00:03:32.821Z,0.00
2019-05-07T00:04:33.202Z,0.00
2019-05-07T00:05:33.204Z,0.00
2019-05-07T00:06:32.582Z,0.00
2019-05-07T00:07:32.135Z,0.00
2019-05-07T00:08:32.271Z,0.00
2019-05-07T00:09:32.367Z,0.00
2019-05-07T00:10:33.087Z,0.00
2019-05-07T00:11:33.086Z,0.00
2019-05-07T00:12:32.399Z,0.00
2019-05-07T00:13:33.337Z,0.00
2019-05-07T00:14:34.331Z,0.00
2019-05-07T00:15:32.844Z,0.00
2019-05-07T00:16:32.553Z,0.00
2019-05-07T00:17:32.346Z,0.00
2019-05-07T00:18:32.275Z,0.00
2019-05-07T00:19:32.524Z,0.00
2019-05-07T00:20:32.737Z,0.00
2019-05-07T00:21:32.659Z,0.00
2019-05-07T00:22:32.700Z,0.00
2019-05-07T00:23:32.526Z,0.00
2019-05-07T00:24:33.162Z,0.00
2019-05-07T00:25:32.839Z,0.00
2019-05-07T00:26:32.102Z,0.00
2019-05-07T00:27:32.142Z,0.00
2019-05-07T00:28:32.478Z,0.00
2019-05-07T00:29:32.541Z,0.00
2019-05-07T00:30:33.194Z,0.00
2019-05-07T00:31:32.591Z,0.00
2019-05-07T00:32:32.770Z,0.00
2019-05-07T00:33:32.443Z,0.00
2019-05-07T00:34:32.818Z,0.00
2019-05-07T00:35:32.384Z,0.00
2019-05-07T00:36:32.438Z,0.00
2019-05-07T00:37:32.335Z,0.00
2019-05-07T00:38:31.987Z,0.00
2019-05-07T00:39:32.811Z,0.00
2019-05-07T00:40:32.188Z,0.00
2019-05-07T00:41:31.949Z,0.00
2019-05-07T00:42:32.707Z,0.00
2019-05-07T00:43:32.310Z,0.00
2019-05-07T00:44:32.808Z,0.00
2019-05-07T00:45:32.585Z,0.00
2019-05-07T00:46:32.237Z,0.00
2019-05-07T00:47:32.999Z,0.00
2019-05-07T00:48:32.857Z,0.00
2019-05-07T00:49:33.106Z,0.00
2019-05-07T00:50:33.099Z,0.00
2019-05-07T00:51:33.406Z,0.00
2019-05-07T00:52:33.482Z,0.00
2019-05-07T00:53:32.899Z,0.00
2019-05-07T00:54:32.541Z,0.00
2019-05-07T00:55:32.572Z,0.00
2019-05-07T00:56:33.223Z,0.00
2019-05-07T00:57:32.411Z,0.00
2019-05-07T00:58:32.137Z,0.00
2019-05-07T00:59:32.194Z,0.00
2019-05-07T01:00:33.231Z,0.00
2019-05-07T01:01:32.390Z,0.00
2019-05-07T01:02:32.324Z,0.00
2019-05-07T01:03:32.852Z,0.00
2019-05-07T01:04:33.127Z,0.00
2019-05-07T01:05:32.597Z,0.00
2019-05-07T01:06:33.056Z,0.00
2019-05-07T01:07:32.449Z,0.00
2019-05-07T01:08:32.194Z,0.00
2019-05-07T01:09:32.411Z,0.00
2019-05-07T01:10:32.998Z,0.00
2019-05-07T01:11:33.470Z,0.00
2019-05-07T01:12:32.875Z,0.00
2019-05-07T01:13:32.328Z,0.00
2019-05-07T01:14:32.542Z,0.00
2019-05-07T01:15:34.557Z,0.00
2019-05-07T01:16:32.964Z,0.00
2019-05-07T01:17:33.537Z,0.00
2019-05-07T01:18:32.380Z,0.00
2019-05-07T01:19:32.823Z,0.00
2019-05-07T01:20:32.907Z,0.00
2019-05-07T01:21:32.463Z,0.00
2019-05-07T01:22:33.057Z,0.00
2019-05-07T01:23:32.215Z,0.00
2019-05-07T01:24:32.256Z,0.00
2019-05-07T01:25:32.855Z,0.00
2019-05-07T01:26:32.924Z,0.00
2019-05-07T01:27:32.124Z,0.00
2019-05-07T01:28:32.922Z,0.00
2019-05-07T01:29:32.830Z,0.00
2019-05-07T01:30:32.415Z,0.00
2019-05-07T01:31:32.859Z,0.00
2019-05-07T01:32:32.987Z,0.00
2019-05-07T01:33:33.212Z,0.00
2019-05-07T01:34:32.291Z,0.00
2019-05-07T01:35:32.678Z,0.00
2019-05-07T01:36:32.016Z,0.00
2019-05-07T01:37:32.611Z,0.00
2019-05-07T01:38:33.149Z,0.00
2019-05-07T01:39:32.690Z,0.00
2019-05-07T01:40:32.369Z,0.00
2019-05-07T01:41:32.645Z,0.00
2019-05-07T01:42:32.731Z,0.00
2019-05-07T01:43:32.120Z,0.00
2019-05-07T01:44:32.519Z,0.00
2019-05-07T01:45:43.221Z,0.00
2019-05-07T01:46:32.429Z,0.00
2019-05-07T01:47:33.168Z,0.00
2019-05-07T01:48:32.363Z,0.00
2019-05-07T01:49:33.074Z,0.00
2019-05-07T01:50:32.277Z,0.00
2019-05-07T01:51:32.621Z,0.00
2019-05-07T01:52:33.198Z,0.00
2019-05-07T01:53:32.374Z,0.00
2019-05-07T01:54:33.232Z,0.00
2019-05-07T01:55:31.944Z,0.00
2019-05-07T01:56:33.163Z,0.00
2019-05-07T01:57:32.617Z,0.00
2019-05-07T01:58:33.099Z,0.00
2019-05-07T01:59:32.106Z,0.00
2019-05-07T02:00:32.634Z,0.00
2019-05-07T02:01:35.473Z,0.00
2019-05-07T02:02:32.045Z,0.00
2019-05-07T02:03:32.825Z,0.00
2019-05-07T02:04:32.696Z,0.00
2019-05-07T02:05:32.599Z,0.00
2019-05-07T02:06:32.780Z,0.00
2019-05-07T02:07:33.265Z,0.00
2019-05-07T02:08:32.884Z,0.00
2019-05-07T02:09:34.063Z,0.00
2019-05-07T02:10:32.148Z,0.00
2019-05-07T02:11:32.669Z,0.00
2019-05-07T02:12:31.948Z,0.00
2019-05-07T02:13:33.722Z,0.00
2019-05-07T02:14:32.995Z,0.00
2019-05-07T02:15:32.298Z,0.00
2019-05-07T02:16:32.647Z,0.00
2019-05-07T02:17:32.244Z,0.00
2019-05-07T02:18:32.585Z,0.00
2019-05-07T02:19:32.894Z,0.00
2019-05-07T02:20:32.186Z,0.00
2019-05-07T02:21:32.967Z,0.00
2019-05-07T02:22:32.031Z,0.00
2019-05-07T02:23:33.009Z,0.00
2019-05-07T02:24:33.314Z,0.00
2019-05-07T02:25:32.760Z,0.00
2019-05-07T02:26:32.122Z,0.00
2019-05-07T02:27:32.868Z,0.00
2019-05-07T02:28:32.919Z,0.00
2019-05-07T02:29:32.322Z,0.00
2019-05-07T02:30:34.573Z,0.00
2019-05-07T02:31:33.648Z,0.00
2019-05-07T02:32:33.442Z,0.00
2019-05-07T02:33:34.407Z,0.00
2019-05-07T02:34:33.888Z,0.00
2019-05-07T02:35:33.370Z,0.00
2019-05-07T02:36:33.888Z,0.00
2019-05-07T02:37:42.259Z,0.00
2019-05-07T02:38:33.967Z,0.00
2019-05-07T02:39:33.268Z,0.00
2019-05-07T02:40:33.908Z,0.00
2019-05-07T02:41:33.149Z,0.00
2019-05-07T02:42:33.505Z,0.00
2019-05-07T02:43:33.872Z,0.00
2019-05-07T02:44:32.491Z,0.00
2019-05-07T02:45:33.203Z,0.00
2019-05-07T02:46:35.219Z,0.00
2019-05-07T02:47:33.030Z,0.00
2019-05-07T02:48:33.277Z,0.00
2019-05-07T02:49:32.733Z,0.00
2019-05-07T02:50:32.913Z,0.00
2019-05-07T02:51:33.482Z,0.00
2019-05-07T02:52:32.429Z,0.00
2019-05-07T02:53:33.735Z,0.00
2019-05-07T02:54:32.913Z,0.00
2019-05-07T02:55:33.709Z,0.00
2019-05-07T02:56:33.437Z,0.00
2019-05-07T02:57:34.071Z,0.00
2019-05-07T02:58:33.052Z,0.00
2019-05-07T02:59:33.688Z,0.00
2019-05-07T03:00:33.391Z,0.00
2019-05-07T03:01:33.593Z,0.00
2019-05-07T03:02:33.250Z,0.00
2019-05-07T03:03:33.539Z,4.00
2019-05-07T03:04:33.375Z,4.00
2019-05-07T03:05:31.121Z,0.00
2019-05-07T03:06:33.903Z,4.00
2019-05-07T03:07:33.559Z,4.00
2019-05-07T03:08:33.048Z,4.00
2019-05-07T03:09:32.863Z,4.00
2019-05-07T03:10:33.649Z,4.00
2019-05-07T03:11:33.895Z,4.00
2019-05-07T03:12:33.510Z,8.00
2019-05-07T03:13:33.654Z,8.00
2019-05-07T03:14:32.414Z,8.00
2019-05-07T03:15:33.151Z,8.00
2019-05-07T03:16:39.766Z,12.00
2019-05-07T03:17:33.418Z,12.00
2019-05-07T03:18:33.468Z,20.00
2019-05-07T03:19:33.121Z,20.00
2019-05-07T03:20:33.404Z,24.00
2019-05-07T03:21:32.863Z,28.00
2019-05-07T03:22:33.694Z,28.00
2019-05-07T03:23:33.778Z,36.00
2019-05-07T03:24:33.969Z,36.00
2019-05-07T03:25:33.881Z,40.00
2019-05-07T03:26:33.936Z,44.00
2019-05-07T03:27:33.775Z,48.00
2019-05-07T03:28:33.454Z,56.00
2019-05-07T03:29:33.408Z,56.00
2019-05-07T03:30:35.530Z,64.00
2019-05-07T03:31:35.959Z,68.00
2019-05-07T03:32:36.646Z,76.00
2019-05-07T03:33:36.121Z,80.00
2019-05-07T03:34:36.191Z,88.00
2019-05-07T03:35:36.438Z,96.00
2019-05-07T03:36:35.444Z,100.00
2019-05-07T03:37:35.256Z,108.00
2019-05-07T03:38:33.409Z,116.00
2019-05-07T03:39:33.603Z,124.00
2019-05-07T03:40:32.905Z,136.00
2019-05-07T03:41:33.237Z,148.00
2019-05-07T03:42:33.498Z,160.00
2019-05-07T03:43:32.561Z,180.00
2019-05-07T03:44:33.865Z,196.00
2019-05-07T03:45:33.421Z,216.00
2019-05-07T03:46:33.549Z,240.00
2019-05-07T03:47:33.186Z,268.00
2019-05-07T03:48:33.275Z,292.00
2019-05-07T03:49:33.883Z,320.00
2019-05-07T03:50:33.642Z,348.00
2019-05-07T03:51:32.929Z,372.00
2019-05-07T03:52:33.549Z,396.00
2019-05-07T03:53:33.513Z,424.00
2019-05-07T03:54:33.767Z,456.00
2019-05-07T03:55:33.267Z,488.00
2019-05-07T03:56:33.047Z,512.00
2019-05-07T03:57:33.341Z,536.00
2019-05-07T03:58:33.662Z,568.00
2019-05-07T03:59:33.982Z,604.00
2019-05-07T04:00:33.262Z,644.00
2019-05-07T04:01:33.505Z,696.00
2019-05-07T04:02:33.249Z,732.00
2019-05-07T04:03:34.096Z,752.00
2019-05-07T04:04:33.146Z,768.00
2019-05-07T04:05:33.866Z,788.00
2019-05-07T04:06:33.256Z,816.00
2019-05-07T04:07:33.583Z,856.00
2019-05-07T04:08:33.420Z,900.00
2019-05-07T04:09:33.354Z,956.00
2019-05-07T04:10:33.525Z,1012.00
2019-05-07T04:11:33.555Z,1084.00
2019-05-07T04:12:30.825Z,1164.00
2019-05-07T04:13:33.424Z,1236.00
2019-05-07T04:14:34.127Z,1312.00
2019-05-07T04:15:33.052Z,1392.00
2019-05-07T04:16:33.200Z,1468.00
2019-05-07T04:17:33.593Z,1532.00
2019-05-07T04:18:32.972Z,1584.00
2019-05-07T04:19:32.793Z,1636.00
2019-05-07T04:20:33.321Z,1680.00
2019-05-07T04:21:34.202Z,1720.00
2019-05-07T04:22:30.789Z,1752.00
2019-05-07T04:23:33.765Z,1776.00
2019-05-07T04:24:33.169Z,1784.00
2019-05-07T04:25:34.284Z,1804.00
2019-05-07T04:26:33.636Z,1844.00
2019-05-07T04:27:33.263Z,1872.00
2019-05-07T04:28:33.475Z,1912.00
2019-05-07T04:29:30.728Z,1984.00
2019-05-07T04:30:33.013Z,2084.00
2019-05-07T04:31:33.922Z,2164.00
2019-05-07T04:32:33.232Z,2240.00
2019-05-07T04:33:33.310Z,2308.00
2019-05-07T04:34:33.571Z,2384.00
2019-05-07T04:35:33.480Z,2456.00
2019-05-07T04:36:33.771Z,2508.00
2019-05-07T04:37:33.143Z,2564.00
2019-05-07T04:38:33.152Z,2620.00
2019-05-07T04:39:33.312Z,2700.00
2019-05-07T04:40:33.637Z,2804.00
2019-05-07T04:41:33.029Z,2932.00
2019-05-07T04:42:33.363Z,3056.00
2019-05-07T04:43:33.348Z,3204.00
2019-05-07T04:44:33.260Z,3340.00
2019-05-07T04:45:33.417Z,3460.00
2019-05-07T04:46:33.346Z,3560.00
2019-05-07T04:47:42.427Z,3644.00
2019-05-07T04:48:33.742Z,3740.00
2019-05-07T04:49:33.220Z,3852.00
2019-05-07T04:50:39.491Z,3980.00
2019-05-07T04:51:33.391Z,4128.00
2019-05-07T04:52:33.396Z,4276.00
2019-05-07T04:53:32.829Z,4432.00
2019-05-07T04:54:32.880Z,4592.00
2019-05-07T04:55:33.194Z,4680.00
2019-05-07T04:56:33.456Z,4764.00
2019-05-07T04:57:32.846Z,4880.00
2019-05-07T04:58:33.184Z,5032.00
2019-05-07T04:59:32.792Z,5216.00
2019-05-07T05:00:33.335Z,5396.00
2019-05-07T05:01:32.866Z,5576.00
2019-05-07T05:02:32.535Z,5772.00
2019-05-07T05:03:30.611Z,5948.00
2019-05-07T05:04:34.839Z,6116.00
2019-05-07T05:05:32.954Z,6284.00
2019-05-07T05:06:32.733Z,6424.00
2019-05-07T05:07:33.307Z,6548.00
2019-05-07T05:08:32.621Z,6660.00
2019-05-07T05:09:32.892Z,6800.00
2019-05-07T05:10:33.442Z,6996.00
2019-05-07T05:11:33.284Z,7216.00
2019-05-07T05:12:32.677Z,7472.00
2019-05-07T05:13:33.066Z,7696.00
2019-05-07T05:14:33.450Z,7912.00
2019-05-07T05:15:32.078Z,8116.00
2019-05-07T05:16:32.624Z,8284.00
2019-05-07T05:17:32.032Z,8444.00
2019-05-07T05:18:32.804Z,8580.00
2019-05-07T05:19:32.293Z,8708.00
2019-05-07T05:20:30.536Z,8900.00
2019-05-07T05:21:32.255Z,9168.00
2019-05-07T05:22:31.768Z,9424.00
2019-05-07T05:23:32.301Z,9572.00
2019-05-07T05:24:32.784Z,9640.00
2019-05-07T05:25:32.284Z,9620.00
2019-05-07T05:26:32.454Z,9696.00
2019-05-07T05:27:32.605Z,9860.00
2019-05-07T05:28:32.380Z,10040.00
2019-05-07T05:29:32.319Z,10272.00
2019-05-07T05:30:32.598Z,10576.00
2019-05-07T05:31:32.882Z,10856.00
2019-05-07T05:32:32.435Z,11072.00
2019-05-07T05:33:32.353Z,11424.00
2019-05-07T05:34:32.762Z,11784.00
2019-05-07T05:35:32.087Z,12024.00
2019-05-07T05:36:32.758Z,12208.00
2019-05-07T05:37:32.154Z,12288.00
2019-05-07T05:38:32.249Z,12336.00
2019-05-07T05:39:32.049Z,12452.00
2019-05-07T05:40:32.000Z,12624.00
2019-05-07T05:41:30.456Z,12844.00
2019-05-07T05:42:30.453Z,13040.00
2019-05-07T05:43:31.947Z,12960.00
2019-05-07T05:44:32.014Z,12884.00
2019-05-07T05:45:30.445Z,12844.00
2019-05-07T05:46:31.956Z,13000.00
2019-05-07T05:47:30.445Z,13188.00
2019-05-07T05:48:30.469Z,13356.00
2019-05-07T05:49:32.175Z,13388.00
2019-05-07T05:50:32.979Z,13348.00
2019-05-07T05:51:32.203Z,13408.00
2019-05-07T05:52:32.738Z,13572.00
2019-05-07T05:53:32.549Z,13848.00
2019-05-07T05:54:31.871Z,14188.00
2019-05-07T05:55:32.183Z,14544.00
2019-05-07T05:56:32.295Z,14760.00
2019-05-07T05:57:32.257Z,14892.00
2019-05-07T05:58:32.499Z,15024.00
2019-05-07T05:59:47.329Z,15472.00
2019-05-07T06:00:32.700Z,16096.00
2019-05-07T06:01:32.090Z,16852.00
2019-05-07T06:02:32.350Z,18496.00
2019-05-07T06:03:32.216Z,17728.00
2019-05-07T06:04:32.722Z,17600.00
2019-05-07T06:05:33.885Z,17472.00
2019-05-07T06:06:32.583Z,16984.00
2019-05-07T06:07:31.912Z,16924.00
2019-05-07T06:08:32.490Z,17136.00
2019-05-07T06:09:32.582Z,17632.00
2019-05-07T06:10:30.395Z,17824.00
2019-05-07T06:11:32.170Z,17984.00
2019-05-07T06:12:32.615Z,18144.00
2019-05-07T06:13:32.269Z,18176.00
2019-05-07T06:14:30.413Z,18304.00
2019-05-07T06:15:32.621Z,18176.00
2019-05-07T06:16:32.749Z,17984.00
2019-05-07T06:17:32.097Z,18016.00
2019-05-07T06:18:32.589Z,17824.00
2019-05-07T06:19:32.682Z,17292.00
2019-05-07T06:20:32.078Z,17272.00
2019-05-07T06:21:32.257Z,17824.00
2019-05-07T06:22:30.366Z,18400.00
2019-05-07T06:23:32.786Z,18912.00
2019-05-07T06:24:31.792Z,19456.00
2019-05-07T06:25:33.380Z,20288.00
2019-05-07T06:26:31.922Z,21312.00
2019-05-07T06:27:32.401Z,22656.00
2019-05-07T06:28:30.359Z,23840.00
2019-05-07T06:29:30.384Z,25376.00
2019-05-07T06:30:30.358Z,26496.00
2019-05-07T06:31:32.526Z,28000.00
2019-05-07T06:32:32.025Z,26368.00
2019-05-07T06:33:32.274Z,25344.00
2019-05-07T06:34:30.426Z,25408.00
2019-05-07T06:35:32.315Z,25088.00
2019-05-07T06:36:32.688Z,24320.00
2019-05-07T06:37:32.143Z,23744.00
2019-05-07T06:38:31.974Z,23072.00
2019-05-07T06:39:32.680Z,21696.00
2019-05-07T06:40:32.193Z,20192.00
2019-05-07T06:41:32.222Z,19520.00
2019-05-07T06:42:30.347Z,20352.00
2019-05-07T06:43:32.375Z,21664.00
2019-05-07T06:44:32.032Z,22528.00
2019-05-07T06:45:32.613Z,22560.00
2019-05-07T06:46:32.183Z,22112.00
2019-05-07T06:47:31.933Z,22176.00
2019-05-07T06:48:41.397Z,22144.00
2019-05-07T06:49:32.261Z,21600.00
2019-05-07T06:50:32.530Z,21120.00
2019-05-07T06:51:32.650Z,21056.00
2019-05-07T06:52:31.972Z,21504.00
2019-05-07T06:53:32.971Z,21760.00
2019-05-07T06:54:32.139Z,22080.00
2019-05-07T06:55:32.316Z,22240.00
2019-05-07T06:56:32.418Z,21920.00
2019-05-07T06:57:30.335Z,22080.00
2019-05-07T06:58:32.567Z,22176.00
2019-05-07T06:59:34.089Z,22720.00
2019-05-07T07:00:31.901Z,23488.00
2019-05-07T07:01:32.315Z,24320.00
2019-05-07T07:02:32.733Z,24896.00
2019-05-07T07:03:32.660Z,24832.00
2019-05-07T07:04:30.355Z,24768.00
2019-05-07T07:05:32.844Z,24608.00
2019-05-07T07:06:32.216Z,24800.00
2019-05-07T07:07:34.731Z,25280.00
2019-05-07T07:08:32.401Z,25504.00
2019-05-07T07:09:30.351Z,25472.00
2019-05-07T07:10:32.274Z,25728.00
2019-05-07T07:11:31.912Z,26080.00
2019-05-07T07:12:30.333Z,26176.00
2019-05-07T07:13:32.160Z,26336.00
2019-05-07T07:14:30.322Z,26368.00
2019-05-07T07:15:32.062Z,26016.00
2019-05-07T07:16:32.437Z,25856.00
2019-05-07T07:17:32.433Z,26304.00
2019-05-07T07:18:32.296Z,26976.00
2019-05-07T07:19:32.505Z,27808.00
2019-05-07T07:20:32.448Z,28416.00
2019-05-07T07:21:32.511Z,28416.00
2019-05-07T07:22:31.956Z,27808.00
2019-05-07T07:23:32.434Z,25696.00
2019-05-07T07:24:32.744Z,24000.00
2019-05-07T07:25:32.392Z,23328.00
2019-05-07T07:26:32.656Z,22464.00
2019-05-07T07:27:32.243Z,21696.00
2019-05-07T07:28:32.424Z,21664.00
2019-05-07T07:29:32.294Z,21312.00
2019-05-07T07:30:32.471Z,20960.00
2019-05-07T07:31:31.931Z,20512.00
2019-05-07T07:32:31.748Z,18816.00
2019-05-07T07:33:32.006Z,16240.00
2019-05-07T07:34:30.309Z,14256.00
2019-05-07T07:35:32.186Z,13224.00
2019-05-07T07:36:32.033Z,13120.00
2019-05-07T07:37:32.039Z,13236.00
2019-05-07T07:38:32.581Z,13244.00
2019-05-07T07:39:32.329Z,13868.00
2019-05-07T07:40:32.558Z,15772.00
2019-05-07T07:41:32.502Z,19040.00
2019-05-07T07:42:31.955Z,21952.00
2019-05-07T07:43:32.388Z,22848.00
2019-05-07T07:44:30.301Z,22432.00
2019-05-07T07:45:32.346Z,22048.00
2019-05-07T07:46:32.833Z,21504.00
2019-05-07T07:47:32.755Z,20704.00
2019-05-07T07:48:32.107Z,19264.00
2019-05-07T07:49:32.314Z,17600.00
2019-05-07T07:50:32.368Z,16508.00
2019-05-07T07:51:38.810Z,16012.00
2019-05-07T07:52:32.342Z,15136.00
2019-05-07T07:53:33.146Z,14044.00
2019-05-07T07:54:32.084Z,12664.00
2019-05-07T07:55:30.321Z,11288.00
2019-05-07T07:56:45.348Z,10176.00
2019-05-07T07:57:32.330Z,9712.00
2019-05-07T07:58:32.205Z,10016.00
2019-05-07T07:59:30.289Z,10740.00
2019-05-07T08:00:32.792Z,11280.00
2019-05-07T08:01:30.312Z,11476.00
2019-05-07T08:02:32.241Z,11516.00
2019-05-07T08:03:30.285Z,11592.00
2019-05-07T08:04:32.002Z,11284.00
2019-05-07T08:05:32.432Z,10784.00
2019-05-07T08:06:32.546Z,10968.00
2019-05-07T08:07:30.281Z,11528.00
2019-05-07T08:08:32.016Z,12340.00
2019-05-07T08:09:32.328Z,13052.00
2019-05-07T08:10:32.383Z,13756.00
2019-05-07T08:11:31.939Z,14264.00
2019-05-07T08:12:32.339Z,13860.00
2019-05-07T08:13:32.350Z,12364.00
2019-05-07T08:14:32.328Z,10680.00
2019-05-07T08:15:32.852Z,9432.00
2019-05-07T08:16:32.625Z,8612.00
2019-05-07T08:17:32.517Z,8224.00
2019-05-07T08:18:32.612Z,8216.00
2019-05-07T08:19:32.530Z,8496.00
2019-05-07T08:20:32.430Z,8700.00
2019-05-07T08:21:30.261Z,8796.00
2019-05-07T08:22:30.262Z,9168.00
2019-05-07T08:23:31.930Z,9976.00
2019-05-07T08:24:32.096Z,11208.00
2019-05-07T08:25:32.110Z,12660.00
2019-05-07T08:26:32.208Z,14404.00
2019-05-07T08:27:32.453Z,15996.00
2019-05-07T08:28:31.947Z,17312.00
2019-05-07T08:29:32.304Z,17472.00
2019-05-07T08:30:30.255Z,17056.00
2019-05-07T08:31:32.069Z,17312.00
2019-05-07T08:32:32.531Z,18176.00
2019-05-07T08:33:32.183Z,19104.00
2019-05-07T08:34:31.940Z,20800.00
2019-05-07T08:35:32.543Z,23520.00
2019-05-07T08:36:30.261Z,27104.00
2019-05-07T08:37:32.056Z,30464.00
2019-05-07T08:38:32.734Z,32288.00
2019-05-07T08:39:32.345Z,33024.00
2019-05-07T08:40:32.568Z,33536.00
2019-05-07T08:41:31.901Z,33696.00
2019-05-07T08:42:32.032Z,35904.00
2019-05-07T08:43:32.234Z,36288.00
2019-05-07T08:44:32.426Z,37472.00
2019-05-07T08:45:32.505Z,41152.00
2019-05-07T08:46:30.276Z,46400.00
2019-05-07T08:47:31.939Z,40864.00
2019-05-07T08:48:32.085Z,45024.00
2019-05-07T08:49:36.992Z,41536.00
2019-05-07T08:50:30.251Z,45248.00
2019-05-07T08:51:30.269Z,46464.00
2019-05-07T08:52:30.258Z,36736.00
2019-05-07T08:53:30.284Z,45472.00
2019-05-07T08:54:32.103Z,45472.00
2019-05-07T08:55:32.211Z,36704.00
2019-05-07T08:56:31.858Z,36416.00
2019-05-07T08:57:31.897Z,38528.00
2019-05-07T08:58:31.747Z,28064.00
2019-05-07T08:59:31.981Z,42720.00
2019-05-07T09:00:32.434Z,31712.00
2019-05-07T09:01:32.411Z,29440.00
2019-05-07T09:02:32.412Z,40000.00
2019-05-07T09:03:32.311Z,29920.00
2019-05-07T09:04:32.389Z,41184.00
2019-05-07T09:05:32.207Z,39936.00
2019-05-07T09:06:32.243Z,38080.00
2019-05-07T09:07:32.117Z,45696.00
2019-05-07T09:08:32.130Z,44448.00
2019-05-07T09:09:32.448Z,51104.00
2019-05-07T09:10:32.314Z,55488.00
2019-05-07T09:11:32.089Z,54208.00
2019-05-07T09:12:31.832Z,41792.00
2019-05-07T09:13:30.353Z,38656.00
2019-05-07T09:14:32.061Z,34784.00
2019-05-07T09:15:32.034Z,31520.00
2019-05-07T09:16:31.946Z,27744.00
2019-05-07T09:17:31.827Z,25184.00
2019-05-07T09:18:32.182Z,23392.00
2019-05-07T09:19:32.192Z,21920.00
2019-05-07T09:20:32.171Z,20128.00
2019-05-07T09:21:32.158Z,19072.00
2019-05-07T09:22:32.297Z,18400.00
2019-05-07T09:23:31.859Z,18528.00
2019-05-07T09:24:32.926Z,19872.00
2019-05-07T09:25:32.417Z,22112.00
2019-05-07T09:26:32.250Z,24992.00
2019-05-07T09:27:32.560Z,27936.00
2019-05-07T09:28:32.563Z,30880.00
2019-05-07T09:29:32.239Z,34560.00
2019-05-07T09:30:32.506Z,40352.00
2019-05-07T09:31:32.235Z,39104.00
2019-05-07T09:32:32.468Z,42016.00
2019-05-07T09:33:32.093Z,39808.00
2019-05-07T09:34:32.569Z,40000.00
2019-05-07T09:35:32.089Z,44064.00
2019-05-07T09:36:32.237Z,28288.00
2019-05-07T09:37:32.446Z,25280.00
2019-05-07T09:38:32.609Z,23488.00
2019-05-07T09:39:32.453Z,22880.00
2019-05-07T09:40:32.020Z,22656.00
2019-05-07T09:41:32.576Z,22240.00
2019-05-07T09:42:32.961Z,21536.00
2019-05-07T09:43:32.302Z,20768.00
2019-05-07T09:44:32.382Z,19904.00
2019-05-07T09:45:32.667Z,19168.00
2019-05-07T09:46:32.355Z,18720.00
2019-05-07T09:47:32.420Z,18400.00
2019-05-07T09:48:30.503Z,18048.00
2019-05-07T09:49:32.568Z,17792.00
2019-05-07T09:50:32.322Z,17920.00
2019-05-07T09:51:32.243Z,18464.00
2019-05-07T09:52:32.168Z,19168.00
2019-05-07T09:53:32.187Z,20192.00
2019-05-07T09:54:32.285Z,21600.00
2019-05-07T09:55:32.452Z,23264.00
2019-05-07T09:56:31.988Z,25120.00
2019-05-07T09:57:32.461Z,27040.00
2019-05-07T09:58:36.625Z,28960.00
2019-05-07T09:59:32.363Z,30816.00
2019-05-07T10:00:31.996Z,32384.00
2019-05-07T10:01:31.963Z,33696.00
2019-05-07T10:02:31.973Z,34656.00
2019-05-07T10:03:32.405Z,35616.00
2019-05-07T10:04:32.594Z,36800.00
2019-05-07T10:05:32.159Z,38048.00
2019-05-07T10:06:32.047Z,39360.00
2019-05-07T10:07:32.477Z,40448.00
2019-05-07T10:08:31.803Z,42144.00
2019-05-07T10:09:32.632Z,44704.00
2019-05-07T10:10:32.723Z,48416.00
2019-05-07T10:11:32.701Z,52224.00
2019-05-07T10:12:30.556Z,123968.00
2019-05-07T10:13:30.549Z,110464.00
2019-05-07T10:14:32.913Z,48384.00
2019-05-07T10:15:32.903Z,41952.00
2019-05-07T10:16:30.555Z,39296.00
2019-05-07T10:17:32.618Z,36640.00
2019-05-07T10:18:32.067Z,34144.00
2019-05-07T10:19:32.350Z,32096.00
2019-05-07T10:20:32.570Z,31040.00
2019-05-07T10:21:30.596Z,29856.00
2019-05-07T10:22:32.137Z,28864.00
2019-05-07T10:23:30.575Z,27904.00
2019-05-07T10:24:30.581Z,26816.00
2019-05-07T10:25:32.700Z,25600.00
2019-05-07T10:26:32.158Z,24800.00
2019-05-07T10:27:32.392Z,24096.00
2019-05-07T10:28:32.031Z,23232.00
2019-05-07T10:29:32.229Z,22432.00
2019-05-07T10:30:32.171Z,21632.00
2019-05-07T10:31:32.026Z,21152.00
2019-05-07T10:32:32.251Z,20832.00
2019-05-07T10:33:31.918Z,20928.00
2019-05-07T10:34:30.615Z,21344.00
2019-05-07T10:35:31.660Z,22016.00
2019-05-07T10:36:32.026Z,22944.00
2019-05-07T10:37:31.898Z,24128.00
2019-05-07T10:38:30.629Z,25312.00
2019-05-07T10:39:32.424Z,26432.00
2019-05-07T10:40:32.574Z,27520.00
2019-05-07T10:41:31.868Z,28800.00
2019-05-07T10:42:32.341Z,30112.00
2019-05-07T10:43:32.578Z,31264.00
2019-05-07T10:44:32.111Z,32384.00
2019-05-07T10:45:32.291Z,33440.00
2019-05-07T10:46:31.962Z,34272.00
2019-05-07T10:47:30.634Z,34944.00
2019-05-07T10:48:31.983Z,35520.00
2019-05-07T10:49:31.757Z,36256.00
2019-05-07T10:50:38.957Z,37312.00
2019-05-07T10:51:32.216Z,38496.00
2019-05-07T10:52:31.903Z,39680.00
2019-05-07T10:53:32.070Z,40768.00
2019-05-07T10:54:30.650Z,41696.00
2019-05-07T10:55:32.600Z,42368.00
2019-05-07T10:56:32.488Z,42816.00
2019-05-07T10:57:32.768Z,41984.00
2019-05-07T10:58:32.043Z,40000.00
2019-05-07T10:59:31.470Z,38560.00
2019-05-07T11:00:32.919Z,37760.00
2019-05-07T11:01:32.750Z,37472.00
2019-05-07T11:02:32.436Z,37152.00
2019-05-07T11:03:32.424Z,37152.00
2019-05-07T11:04:41.966Z,37600.00
2019-05-07T11:05:32.437Z,38624.00
2019-05-07T11:06:32.325Z,40288.00
2019-05-07T11:07:32.699Z,42432.00
2019-05-07T11:08:32.680Z,44736.00
2019-05-07T11:09:32.686Z,47072.00
2019-05-07T11:10:32.710Z,49856.00
2019-05-07T11:11:31.902Z,52384.00
2019-05-07T11:12:32.011Z,54144.00
2019-05-07T11:13:30.683Z,57504.00
2019-05-07T11:14:32.160Z,67296.00
2019-05-07T11:15:32.618Z,67456.00
2019-05-07T11:16:32.425Z,77760.00
2019-05-07T11:17:32.533Z,87648.00
2019-05-07T11:18:32.271Z,102624.00
2019-05-07T11:19:32.443Z,109888.00
2019-05-07T11:20:32.023Z,136992.00
2019-05-07T11:21:32.945Z,134560.00
2019-05-07T11:22:32.714Z,133344.00
2019-05-07T11:23:32.584Z,106496.00
2019-05-07T11:24:32.098Z,129536.00
2019-05-07T11:25:30.736Z,133184.00
2019-05-07T11:26:32.704Z,137568.00
2019-05-07T11:27:32.830Z,129472.00
2019-05-07T11:28:32.312Z,54848.00
2019-05-07T11:29:33.082Z,54560.00
2019-05-07T11:30:32.200Z,58656.00
2019-05-07T11:31:32.835Z,83648.00
2019-05-07T11:32:32.151Z,59232.00
2019-05-07T11:33:32.494Z,104960.00
2019-05-07T11:34:32.754Z,58624.00
2019-05-07T11:35:31.950Z,62176.00
2019-05-07T11:36:32.091Z,56288.00
2019-05-07T11:37:30.852Z,53216.00
2019-05-07T11:38:33.158Z,51776.00
2019-05-07T11:39:33.067Z,53664.00
2019-05-07T11:40:33.558Z,49376.00
2019-05-07T11:41:32.091Z,46912.00
2019-05-07T11:42:30.902Z,45856.00
2019-05-07T11:43:32.658Z,44832.00
2019-05-07T11:44:32.081Z,45280.00
2019-05-07T11:45:32.135Z,42656.00
2019-05-07T11:46:32.743Z,41280.00
2019-05-07T11:47:31.920Z,39616.00
2019-05-07T11:48:33.585Z,38368.00
2019-05-07T11:49:32.757Z,37312.00
2019-05-07T11:50:32.863Z,36576.00
2019-05-07T11:51:33.274Z,36288.00
2019-05-07T11:52:35.194Z,36576.00
2019-05-07T11:53:32.689Z,37216.00
2019-05-07T11:54:31.814Z,38304.00
2019-05-07T11:55:31.011Z,39648.00
2019-05-07T11:56:32.800Z,41280.00
2019-05-07T11:57:31.025Z,43872.00
2019-05-07T11:58:32.481Z,46016.00
2019-05-07T11:59:32.589Z,46880.00
2019-05-07T12:00:32.440Z,46656.00
2019-05-07T12:01:43.504Z,47008.00
2019-05-07T12:02:32.047Z,47264.00
2019-05-07T12:03:32.449Z,47264.00
2019-05-07T12:04:32.116Z,46688.00
2019-05-07T12:05:33.046Z,46048.00
2019-05-07T12:06:32.148Z,45472.00
2019-05-07T12:07:32.769Z,44800.00
2019-05-07T12:08:42.903Z,44000.00
2019-05-07T12:09:33.087Z,43200.00
2019-05-07T12:10:32.729Z,41792.00
2019-05-07T12:11:32.215Z,40224.00
2019-05-07T12:12:32.618Z,38656.00
2019-05-07T12:13:32.399Z,37184.00